sensor_id;sensor_type;location;lat;lon;timestamp;pressure;altitude;pressure_sealevel;temperature;humidity
29417;BME280;28421;51.030;4.006;2023-02-18T00:01:41;102391.09;;;10.97;89.13
29417;BME280;28421;51.030;4.006;2023-02-18T00:04:06;102414.38;;;11.17;89.33
29417;BME280;28421;51.030;4.006;2023-02-18T00:06:34;102390.13;;;11.08;88.47
29417;BME280;28421;51.030;4.006;2023-02-18T00:09:00;102414.22;;;11.19;88.73
29417;BME280;28421;51.030;4.006;2023-02-18T00:11:27;102384.59;;;11.09;88.72
29417;BME280;28421;51.030;4.006;2023-02-18T00:13:58;102374.53;;;11.02;88.79
29417;BME280;28421;51.030;4.006;2023-02-18T00:16:24;102389.69;;;11.03;89.62
29417;BME280;28421;51.030;4.006;2023-02-18T00:18:57;102351.72;;;10.96;89.14
29417;BME280;28421;51.030;4.006;2023-02-18T00:21:23;102411.59;;;11.29;89.09
29417;BME280;28421;51.030;4.006;2023-02-18T00:23:48;102412.44;;;11.29;88.57
29417;BME280;28421;51.030;4.006;2023-02-18T00:26:15;102416.41;;;11.44;87.99
29417;BME280;28421;51.030;4.006;2023-02-18T00:28:42;102375.53;;;11.01;88.85
29417;BME280;28421;51.030;4.006;2023-02-18T00:31:13;102411.13;;;11.24;88.87
29417;BME280;28421;51.030;4.006;2023-02-18T05:36:20;102179.13;;;10.01;91.14
29417;BME280;28421;51.030;4.006;2023-02-18T05:38:45;102134.38;;;9.80;91.16
29417;BME280;28421;51.030;4.006;2023-02-18T05:41:11;102147.38;;;9.75;91.20
29417;BME280;28421;51.030;4.006;2023-02-18T05:43:36;102143.44;;;9.79;90.89
29417;BME280;28421;51.030;4.006;2023-02-18T05:46:20;102160.84;;;9.94;90.42
29417;BME280;28421;51.030;4.006;2023-02-18T05:48:46;102130.44;;;9.84;90.32
29417;BME280;28421;51.030;4.006;2023-02-18T05:51:11;102143.31;;;9.90;89.13
29417;BME280;28421;51.030;4.006;2023-02-18T05:53:37;102152.78;;;9.85;87.58
29417;BME280;28421;51.030;4.006;2023-02-18T05:56:03;102173.78;;;10.10;86.46
29417;BME280;28421;51.030;4.006;2023-02-18T05:58:28;102152.56;;;10.07;85.09
29417;BME280;28421;51.030;4.006;2023-02-18T06:00:54;102161.19;;;10.11;85.57
29417;BME280;28421;51.030;4.006;2023-02-18T06:03:19;102114.31;;;9.84;85.67
29417;BME280;28421;51.030;4.006;2023-02-18T06:05:48;102113.50;;;9.93;85.14
29417;BME280;28421;51.030;4.006;2023-02-18T06:08:14;102085.28;;;9.68;84.80
29417;BME280;28421;51.030;4.006;2023-02-18T06:10:39;102082.94;;;9.85;83.49
29417;BME280;28421;51.030;4.006;2023-02-18T06:13:05;102126.94;;;9.93;83.34
29417;BME280;28421;51.030;4.006;2023-02-18T06:15:30;102111.22;;;9.89;83.00
29417;BME280;28421;51.030;4.006;2023-02-18T06:17:55;102122.50;;;9.83;83.24
29417;BME280;28421;51.030;4.006;2023-02-18T06:20:21;102152.28;;;10.10;82.31
29417;BME280;28421;51.030;4.006;2023-02-18T06:22:46;102119.09;;;9.81;82.30
29417;BME280;28421;51.030;4.006;2023-02-18T06:25:12;102155.13;;;10.09;81.83
29417;BME280;28421;51.030;4.006;2023-02-18T06:27:37;102128.19;;;9.89;81.66
29417;BME280;28421;51.030;4.006;2023-02-18T06:30:03;102139.75;;;9.80;80.73
29417;BME280;28421;51.030;4.006;2023-02-18T06:32:29;102111.91;;;9.91;79.05
29417;BME280;28421;51.030;4.006;2023-02-18T06:34:54;102127.50;;;9.97;78.63
29417;BME280;28421;51.030;4.006;2023-02-18T06:37:20;102127.66;;;9.95;77.79
29417;BME280;28421;51.030;4.006;2023-02-18T06:39:45;102119.44;;;9.97;77.38
29417;BME280;28421;51.030;4.006;2023-02-18T06:42:11;102115.94;;;10.06;77.68
29417;BME280;28421;51.030;4.006;2023-02-18T06:44:36;102119.28;;;9.99;76.76
29417;BME280;28421;51.030;4.006;2023-02-18T06:47:02;102091.84;;;9.85;77.69
29417;BME280;28421;51.030;4.006;2023-02-18T06:49:27;102139.44;;;10.14;77.90
29417;BME280;28421;51.030;4.006;2023-02-18T06:51:52;102104.84;;;9.90;77.61
29417;BME280;28421;51.030;4.006;2023-02-18T06:54:18;102110.66;;;9.95;77.88
29417;BME280;28421;51.030;4.006;2023-02-18T06:56:43;102127.25;;;10.10;77.89
29417;BME280;28421;51.030;4.006;2023-02-18T06:59:09;102097.22;;;9.95;77.62
29417;BME280;28421;51.030;4.006;2023-02-18T07:01:34;102144.53;;;10.17;76.89
29417;BME280;28421;51.030;4.006;2023-02-18T07:03:59;102113.50;;;10.03;77.15
29417;BME280;28421;51.030;4.006;2023-02-18T07:06:25;102065.97;;;9.84;76.69
29417;BME280;28421;51.030;4.006;2023-02-18T07:08:50;102085.78;;;10.03;75.69
29417;BME280;28421;51.030;4.006;2023-02-18T07:11:16;102114.25;;;10.05;76.37
29417;BME280;28421;51.030;4.006;2023-02-18T07:13:41;102153.50;;;10.27;76.54
29417;BME280;28421;51.030;4.006;2023-02-18T07:16:07;102137.16;;;10.09;75.50
29417;BME280;28421;51.030;4.006;2023-02-18T07:18:32;102135.47;;;10.18;74.69
29417;BME280;28421;51.030;4.006;2023-02-18T07:20:58;102123.00;;;10.07;75.55
29417;BME280;28421;51.030;4.006;2023-02-18T07:23:23;102146.56;;;10.25;75.84
29417;BME280;28421;51.030;4.006;2023-02-18T07:25:49;102122.19;;;10.16;75.48
29417;BME280;28421;51.030;4.006;2023-02-18T07:28:14;102167.69;;;10.39;75.44
29417;BME280;28421;51.030;4.006;2023-02-18T07:30:41;102110.38;;;9.98;74.91
29417;BME280;28421;51.030;4.006;2023-02-18T07:33:06;102132.03;;;9.96;75.16
29417;BME280;28421;51.030;4.006;2023-02-18T07:35:32;102115.22;;;10.04;75.15
29417;BME280;28421;51.030;4.006;2023-02-18T07:37:57;102142.81;;;10.16;74.92
29417;BME280;28421;51.030;4.006;2023-02-18T07:40:23;102121.47;;;10.14;73.87
29417;BME280;28421;51.030;4.006;2023-02-18T07:42:48;102132.94;;;10.16;74.24
29417;BME280;28421;51.030;4.006;2023-02-18T07:45:14;102142.03;;;10.25;73.38
29417;BME280;28421;51.030;4.006;2023-02-18T07:47:39;102120.47;;;10.15;73.56
29417;BME280;28421;51.030;4.006;2023-02-18T07:50:07;102126.34;;;10.30;73.55
29417;BME280;28421;51.030;4.006;2023-02-18T07:52:33;102176.31;;;10.42;74.21
29417;BME280;28421;51.030;4.006;2023-02-18T07:54:58;102167.66;;;10.29;73.67
29417;BME280;28421;51.030;4.006;2023-02-18T07:57:24;102144.44;;;10.28;73.63
29417;BME280;28421;51.030;4.006;2023-02-18T07:59:49;102135.06;;;10.23;74.16
29417;BME280;28421;51.030;4.006;2023-02-18T08:02:21;102188.38;;;10.58;74.18
29417;BME280;28421;51.030;4.006;2023-02-18T08:04:47;102179.16;;;10.51;73.97
29417;BME280;28421;51.030;4.006;2023-02-18T08:07:15;102186.53;;;10.58;74.70
29417;BME280;28421;51.030;4.006;2023-02-18T08:09:40;102193.47;;;10.51;74.26
29417;BME280;28421;51.030;4.006;2023-02-18T08:12:06;102113.81;;;10.19;74.35
29417;BME280;28421;51.030;4.006;2023-02-18T08:14:32;102164.44;;;10.55;74.80
29417;BME280;28421;51.030;4.006;2023-02-18T08:16:57;102149.44;;;10.42;74.23
29417;BME280;28421;51.030;4.006;2023-02-18T08:19:23;102195.03;;;10.63;74.38
29417;BME280;28421;51.030;4.006;2023-02-18T08:21:48;102140.38;;;10.34;74.91
29417;BME280;28421;51.030;4.006;2023-02-18T08:24:17;102138.69;;;10.42;74.76
29417;BME280;28421;51.030;4.006;2023-02-18T08:26:42;102164.56;;;10.53;74.84
29417;BME280;28421;51.030;4.006;2023-02-18T08:29:07;102143.59;;;10.28;74.59
29417;BME280;28421;51.030;4.006;2023-02-18T08:31:35;102202.25;;;10.63;74.78
29417;BME280;28421;51.030;4.006;2023-02-18T08:34:01;102154.38;;;10.47;74.78
29417;BME280;28421;51.030;4.006;2023-02-18T08:36:28;102185.69;;;10.77;74.95
29417;BME280;28421;51.030;4.006;2023-02-18T08:38:55;102122.81;;;10.39;74.69
29417;BME280;28421;51.030;4.006;2023-02-18T08:41:20;102169.00;;;10.83;75.10
29417;BME280;28421;51.030;4.006;2023-02-18T08:43:46;102148.59;;;10.61;74.34
29417;BME280;28421;51.030;4.006;2023-02-18T08:46:13;102169.69;;;10.85;74.37
29417;BME280;28421;51.030;4.006;2023-02-18T08:48:38;102139.56;;;10.62;74.77
29417;BME280;28421;51.030;4.006;2023-02-18T08:51:18;102177.91;;;10.84;74.66
29417;BME280;28421;51.030;4.006;2023-02-18T08:53:44;102143.50;;;10.58;74.75
29417;BME280;28421;51.030;4.006;2023-02-18T08:56:12;102137.97;;;10.50;74.65
29417;BME280;28421;51.030;4.006;2023-02-18T08:58:39;102154.25;;;10.78;74.46
29417;BME280;28421;51.030;4.006;2023-02-18T09:01:06;102196.19;;;10.90;74.32
29417;BME280;28421;51.030;4.006;2023-02-18T09:03:33;102184.13;;;10.94;74.95
29417;BME280;28421;51.030;4.006;2023-02-18T09:05:59;102126.09;;;10.62;75.32
29417;BME280;28421;51.030;4.006;2023-02-18T09:08:24;102123.25;;;10.64;74.83
29417;BME280;28421;51.030;4.006;2023-02-18T09:10:54;102166.72;;;10.88;74.25
29417;BME280;28421;51.030;4.006;2023-02-18T09:13:19;102137.13;;;10.69;74.40
29417;BME280;28421;51.030;4.006;2023-02-18T09:15:45;102145.50;;;10.95;74.58
29417;BME280;28421;51.030;4.006;2023-02-18T09:18:10;102146.75;;;10.81;74.32
29417;BME280;28421;51.030;4.006;2023-02-18T09:20:38;102149.84;;;11.15;74.65
29417;BME280;28421;51.030;4.006;2023-02-18T09:23:04;102135.41;;;10.97;73.88
29417;BME280;28421;51.030;4.006;2023-02-18T09:25:29;102148.06;;;10.87;74.18
29417;BME280;28421;51.030;4.006;2023-02-18T09:27:55;102155.06;;;11.27;74.46
29417;BME280;28421;51.030;4.006;2023-02-18T09:30:20;102157.75;;;11.36;73.98
29417;BME280;28421;51.030;4.006;2023-02-18T09:32:45;102140.25;;;10.93;74.24
29417;BME280;28421;51.030;4.006;2023-02-18T09:35:11;102160.91;;;11.03;74.89
29417;BME280;28421;51.030;4.006;2023-02-18T09:37:36;102156.63;;;11.29;74.68
29417;BME280;28421;51.030;4.006;2023-02-18T09:40:04;102151.56;;;10.97;74.79
29417;BME280;28421;51.030;4.006;2023-02-18T09:42:31;102190.78;;;11.19;75.00
29417;BME280;28421;51.030;4.006;2023-02-18T09:45:01;102138.84;;;10.99;75.07
29417;BME280;28421;51.030;4.006;2023-02-18T09:47:37;102176.19;;;11.02;75.23
29417;BME280;28421;51.030;4.006;2023-02-18T09:50:22;102185.41;;;11.09;74.98
29417;BME280;28421;51.030;4.006;2023-02-18T09:52:49;102200.69;;;11.38;75.16
29417;BME280;28421;51.030;4.006;2023-02-18T09:55:16;102185.03;;;11.61;74.77
29417;BME280;28421;51.030;4.006;2023-02-18T09:57:44;102193.63;;;11.37;75.21
29417;BME280;28421;51.030;4.006;2023-02-18T10:00:35;102106.69;;;11.07;75.07
29417;BME280;28421;51.030;4.006;2023-02-18T10:03:06;102161.00;;;11.40;74.36
29417;BME280;28421;51.030;4.006;2023-02-18T10:05:33;102174.81;;;11.64;74.37
29417;BME280;28421;51.030;4.006;2023-02-18T10:08:16;102195.81;;;11.61;74.77
29417;BME280;28421;51.030;4.006;2023-02-18T10:10:47;102182.53;;;11.50;73.91
29417;BME280;28421;51.030;4.006;2023-02-18T10:13:15;102173.50;;;11.22;74.66
29417;BME280;28421;51.030;4.006;2023-02-18T10:15:41;102168.66;;;11.35;74.90
29417;BME280;28421;51.030;4.006;2023-02-18T10:18:19;102164.03;;;11.64;74.20
29417;BME280;28421;51.030;4.006;2023-02-18T10:20:46;102187.97;;;11.87;74.00
29417;BME280;28421;51.030;4.006;2023-02-18T10:23:13;102203.69;;;11.91;73.74
29417;BME280;28421;51.030;4.006;2023-02-18T10:25:43;102121.22;;;11.24;74.76
29417;BME280;28421;51.030;4.006;2023-02-18T10:28:10;102172.63;;;11.40;75.15
29417;BME280;28421;51.030;4.006;2023-02-18T10:30:40;102163.69;;;11.40;75.19
29417;BME280;28421;51.030;4.006;2023-02-18T10:35:52;102180.94;;;11.66;74.73
29417;BME280;28421;51.030;4.006;2023-02-18T10:38:29;102226.00;;;11.64;75.08
29417;BME280;28421;51.030;4.006;2023-02-18T10:46:32;102219.19;;;11.70;75.80
29417;BME280;28421;51.030;4.006;2023-02-18T10:52:04;102193.03;;;11.43;76.00
29417;BME280;28421;51.030;4.006;2023-02-18T10:57:22;102216.66;;;11.59;76.17
29417;BME280;28421;51.030;4.006;2023-02-18T11:00:02;102229.13;;;11.69;75.96
29417;BME280;28421;51.030;4.006;2023-02-18T11:02:38;102213.00;;;11.50;75.99
29417;BME280;28421;51.030;4.006;2023-02-18T11:05:23;102213.69;;;11.52;75.66
29417;BME280;28421;51.030;4.006;2023-02-18T11:07:52;102185.50;;;11.47;75.89
29417;BME280;28421;51.030;4.006;2023-02-18T11:12:58;102194.28;;;11.58;75.62
29417;BME280;28421;51.030;4.006;2023-02-18T11:15:27;102154.16;;;11.55;75.56
29417;BME280;28421;51.030;4.006;2023-02-18T11:17:57;102213.25;;;11.66;75.60
29417;BME280;28421;51.030;4.006;2023-02-18T11:20:36;102177.63;;;11.82;74.77
29417;BME280;28421;51.030;4.006;2023-02-18T11:25:33;102201.41;;;11.97;73.85
29417;BME280;28421;51.030;4.006;2023-02-18T11:28:01;102231.31;;;12.31;73.40
29417;BME280;28421;51.030;4.006;2023-02-18T11:33:05;102148.22;;;11.99;73.05
29417;BME280;28421;51.030;4.006;2023-02-18T11:35:32;102173.91;;;12.21;72.73
29417;BME280;28421;51.030;4.006;2023-02-18T11:38:01;102222.69;;;12.27;73.10
29417;BME280;28421;51.030;4.006;2023-02-18T11:40:33;102202.78;;;12.38;72.92
29417;BME280;28421;51.030;4.006;2023-02-18T11:43:13;102222.69;;;12.55;72.28
29417;BME280;28421;51.030;4.006;2023-02-18T11:45:39;102191.53;;;12.15;72.91
29417;BME280;28421;51.030;4.006;2023-02-18T11:48:16;102182.91;;;12.11;73.08
29417;BME280;28421;51.030;4.006;2023-02-18T11:50:42;102210.50;;;12.23;72.99
29417;BME280;28421;51.030;4.006;2023-02-18T11:53:31;102220.91;;;12.46;72.80
29417;BME280;28421;51.030;4.006;2023-02-18T11:55:59;102155.41;;;12.08;72.66
29417;BME280;28421;51.030;4.006;2023-02-18T11:58:26;102202.84;;;12.18;72.21
29417;BME280;28421;51.030;4.006;2023-02-18T12:00:58;102225.03;;;12.12;72.70
29417;BME280;28421;51.030;4.006;2023-02-18T12:03:41;102235.97;;;12.38;72.81
29417;BME280;28421;51.030;4.006;2023-02-18T12:06:19;102188.06;;;12.23;71.93
29417;BME280;28421;51.030;4.006;2023-02-18T12:08:51;102178.13;;;12.23;72.22
29417;BME280;28421;51.030;4.006;2023-02-18T12:11:26;102203.50;;;12.30;72.38
29417;BME280;28421;51.030;4.006;2023-02-18T12:13:56;102230.25;;;12.24;72.53
29417;BME280;28421;51.030;4.006;2023-02-18T12:16:32;102236.06;;;12.47;72.42
29417;BME280;28421;51.030;4.006;2023-02-18T12:19:12;102231.09;;;12.24;72.84
29417;BME280;28421;51.030;4.006;2023-02-18T12:24:43;102241.63;;;12.45;72.59
29417;BME280;28421;51.030;4.006;2023-02-18T12:27:29;102197.06;;;12.13;72.45
29417;BME280;28421;51.030;4.006;2023-02-18T12:38:33;102232.53;;;12.46;73.90
29417;BME280;28421;51.030;4.006;2023-02-18T12:41:52;102169.16;;;11.67;75.12
29417;BME280;28421;51.030;4.006;2023-02-18T12:44:31;102226.38;;;11.99;75.13
29417;BME280;28421;51.030;4.006;2023-02-18T12:55:17;102222.56;;;12.29;75.53
29417;BME280;28421;51.030;4.006;2023-02-18T12:57:58;102220.38;;;12.05;75.36
29417;BME280;28421;51.030;4.006;2023-02-18T13:03:35;102222.19;;;12.41;74.69
29417;BME280;28421;51.030;4.006;2023-02-18T13:11:53;102214.28;;;12.58;73.95
29417;BME280;28421;51.030;4.006;2023-02-18T13:14:29;102194.97;;;12.35;74.31
29417;BME280;28421;51.030;4.006;2023-02-18T13:16:58;102155.22;;;12.09;74.30
29417;BME280;28421;51.030;4.006;2023-02-18T13:19:31;102213.41;;;12.39;74.69
29417;BME280;28421;51.030;4.006;2023-02-18T13:22:01;102182.09;;;12.29;74.31
29417;BME280;28421;51.030;4.006;2023-02-18T13:24:39;102140.63;;;12.12;74.00
29417;BME280;28421;51.030;4.006;2023-02-18T13:32:39;102155.88;;;12.21;74.48
29417;BME280;28421;51.030;4.006;2023-02-18T13:35:37;102161.84;;;12.42;74.39
29417;BME280;28421;51.030;4.006;2023-02-18T13:40:39;102159.16;;;12.60;73.56
29417;BME280;28421;51.030;4.006;2023-02-18T13:43:20;102188.00;;;12.60;74.17
29417;BME280;28421;51.030;4.006;2023-02-18T13:51:26;102197.59;;;12.90;74.17
29417;BME280;28421;51.030;4.006;2023-02-18T13:54:00;102145.75;;;12.68;73.91
29417;BME280;28421;51.030;4.006;2023-02-18T13:56:29;102167.97;;;12.62;74.90
29417;BME280;28421;51.030;4.006;2023-02-18T13:59:01;102195.41;;;12.58;75.18
29417;BME280;28421;51.030;4.006;2023-02-18T14:01:41;102192.75;;;12.48;75.29
29417;BME280;28421;51.030;4.006;2023-02-18T14:10:02;102166.09;;;12.45;76.10
29417;BME280;28421;51.030;4.006;2023-02-18T14:17:49;102148.00;;;12.10;76.69
29417;BME280;28421;51.030;4.006;2023-02-18T14:20:41;102163.59;;;12.34;76.61
29417;BME280;28421;51.030;4.006;2023-02-18T14:25:49;102184.16;;;12.44;76.91
29417;BME280;28421;51.030;4.006;2023-02-18T14:28:35;102184.59;;;12.12;77.83
29417;BME280;28421;51.030;4.006;2023-02-18T14:33:36;102191.28;;;12.36;76.96
29417;BME280;28421;51.030;4.006;2023-02-18T14:38:59;102127.97;;;11.85;77.76
29417;BME280;28421;51.030;4.006;2023-02-18T14:50:03;102173.53;;;12.15;77.61
29417;BME280;28421;51.030;4.006;2023-02-18T14:52:38;102107.41;;;11.84;77.10
29417;BME280;28421;51.030;4.006;2023-02-18T14:55:06;102130.22;;;11.89;77.34
29417;BME280;28421;51.030;4.006;2023-02-18T14:57:44;102180.41;;;12.28;77.34
29417;BME280;28421;51.030;4.006;2023-02-18T15:00:19;102137.72;;;11.96;77.67
29417;BME280;28421;51.030;4.006;2023-02-18T15:02:53;102148.31;;;12.07;77.42
29417;BME280;28421;51.030;4.006;2023-02-18T15:05:21;102139.03;;;11.91;78.24
29417;BME280;28421;51.030;4.006;2023-02-18T15:13:01;102141.00;;;11.89;79.13
29417;BME280;28421;51.030;4.006;2023-02-18T15:15:27;102117.63;;;11.80;78.87
29417;BME280;28421;51.030;4.006;2023-02-18T15:17:53;102129.81;;;11.84;78.69
29417;BME280;28421;51.030;4.006;2023-02-18T15:20:20;102151.78;;;12.17;78.35
29417;BME280;28421;51.030;4.006;2023-02-18T15:22:47;102143.91;;;12.06;78.07
29417;BME280;28421;51.030;4.006;2023-02-18T15:25:13;102146.69;;;12.14;77.86
29417;BME280;28421;51.030;4.006;2023-02-18T15:27:41;102121.38;;;11.97;78.32
29417;BME280;28421;51.030;4.006;2023-02-18T15:30:28;102139.63;;;11.76;78.69
29417;BME280;28421;51.030;4.006;2023-02-18T15:32:58;102127.94;;;11.94;78.50
29417;BME280;28421;51.030;4.006;2023-02-18T15:35:31;102101.19;;;11.83;78.07
29417;BME280;28421;51.030;4.006;2023-02-18T15:37:59;102144.31;;;11.83;79.12
29417;BME280;28421;51.030;4.006;2023-02-18T15:40:29;102141.84;;;11.90;78.83
29417;BME280;28421;51.030;4.006;2023-02-18T15:42:57;102116.44;;;11.55;79.01
29417;BME280;28421;51.030;4.006;2023-02-18T15:45:28;102126.22;;;11.56;79.64
29417;BME280;28421;51.030;4.006;2023-02-18T15:47:56;102156.78;;;11.75;79.54
29417;BME280;28421;51.030;4.006;2023-02-18T15:52:50;102137.59;;;11.78;79.63
29417;BME280;28421;51.030;4.006;2023-02-18T15:55:38;102141.16;;;11.88;79.07
29417;BME280;28421;51.030;4.006;2023-02-18T15:58:12;102120.19;;;11.72;79.65
29417;BME280;28421;51.030;4.006;2023-02-18T16:00:41;102126.16;;;11.76;79.22
29417;BME280;28421;51.030;4.006;2023-02-18T16:03:20;102148.09;;;11.90;79.10
29417;BME280;28421;51.030;4.006;2023-02-18T16:05:46;102138.94;;;11.74;79.30
29417;BME280;28421;51.030;4.006;2023-02-18T16:08:14;102143.34;;;11.65;79.73
29417;BME280;28421;51.030;4.006;2023-02-18T16:10:48;102132.03;;;11.52;80.39
29417;BME280;28421;51.030;4.006;2023-02-18T16:13:18;102161.94;;;11.58;81.03
29417;BME280;28421;51.030;4.006;2023-02-18T16:15:46;102122.59;;;11.38;80.78
29417;BME280;28421;51.030;4.006;2023-02-18T16:18:30;102139.22;;;11.70;80.13
29417;BME280;28421;51.030;4.006;2023-02-18T16:21:03;102133.13;;;11.68;79.81
29417;BME280;28421;51.030;4.006;2023-02-18T16:23:43;102136.53;;;11.70;80.46
29417;BME280;28421;51.030;4.006;2023-02-18T16:26:41;102146.06;;;11.55;80.90
29417;BME280;28421;51.030;4.006;2023-02-18T16:29:21;102158.84;;;11.53;81.05
29417;BME280;28421;51.030;4.006;2023-02-18T16:31:47;102142.66;;;11.63;81.04
29417;BME280;28421;51.030;4.006;2023-02-18T16:34:13;102139.00;;;11.54;81.01
29417;BME280;28421;51.030;4.006;2023-02-18T16:36:38;102136.19;;;11.46;81.50
29417;BME280;28421;51.030;4.006;2023-02-18T16:39:28;102125.53;;;11.44;81.41
29417;BME280;28421;51.030;4.006;2023-02-18T16:41:55;102134.28;;;11.66;81.02
29417;BME280;28421;51.030;4.006;2023-02-18T16:44:21;102138.59;;;11.39;81.50
29417;BME280;28421;51.030;4.006;2023-02-18T16:46:46;102113.00;;;11.26;82.09
29417;BME280;28421;51.030;4.006;2023-02-18T16:49:13;102117.97;;;11.20;82.69
29417;BME280;28421;51.030;4.006;2023-02-18T16:51:38;102081.88;;;10.94;83.17
29417;BME280;28421;51.030;4.006;2023-02-18T16:54:04;102126.47;;;11.26;83.25
29417;BME280;28421;51.030;4.006;2023-02-18T16:56:32;102128.72;;;11.30;83.04
29417;BME280;28421;51.030;4.006;2023-02-18T16:58:58;102108.09;;;11.49;81.58
29417;BME280;28421;51.030;4.006;2023-02-18T17:01:27;102155.72;;;11.48;82.40
29417;BME280;28421;51.030;4.006;2023-02-18T17:03:54;102084.88;;;10.91;83.21
29417;BME280;28421;51.030;4.006;2023-02-18T17:06:20;102096.34;;;11.40;82.02
29417;BME280;28421;51.030;4.006;2023-02-18T17:08:47;102102.06;;;11.37;82.05
29417;BME280;28421;51.030;4.006;2023-02-18T17:11:18;102144.50;;;11.53;82.24
29417;BME280;28421;51.030;4.006;2023-02-18T17:13:46;102122.44;;;11.39;82.41
29417;BME280;28421;51.030;4.006;2023-02-18T17:16:13;102104.19;;;11.24;82.21
29417;BME280;28421;51.030;4.006;2023-02-18T17:18:38;102116.28;;;11.10;83.51
29417;BME280;28421;51.030;4.006;2023-02-18T17:21:05;102129.38;;;11.42;83.50
29417;BME280;28421;51.030;4.006;2023-02-18T17:23:30;102118.78;;;11.31;83.44
29417;BME280;28421;51.030;4.006;2023-02-18T17:25:55;102105.78;;;11.16;83.60
29417;BME280;28421;51.030;4.006;2023-02-18T17:28:21;102119.34;;;11.34;82.96
29417;BME280;28421;51.030;4.006;2023-02-18T17:30:52;102115.56;;;11.17;83.67
29417;BME280;28421;51.030;4.006;2023-02-18T17:33:20;102120.50;;;11.22;84.25
29417;BME280;28421;51.030;4.006;2023-02-18T17:35:46;102111.00;;;11.28;83.99
29417;BME280;28421;51.030;4.006;2023-02-18T17:38:13;102078.63;;;10.90;84.93
29417;BME280;28421;51.030;4.006;2023-02-18T17:40:39;102057.97;;;10.91;84.86
29417;BME280;28421;51.030;4.006;2023-02-18T17:43:05;102120.34;;;11.33;84.81
29417;BME280;28421;51.030;4.006;2023-02-18T17:45:34;102104.00;;;10.88;85.43
29417;BME280;28421;51.030;4.006;2023-02-18T17:48:01;102136.50;;;11.33;84.82
29417;BME280;28421;51.030;4.006;2023-02-18T17:50:29;102117.78;;;11.32;84.83
29417;BME280;28421;51.030;4.006;2023-02-18T17:52:55;102108.50;;;11.07;86.15
29417;BME280;28421;51.030;4.006;2023-02-18T17:55:29;102150.72;;;10.97;89.06
29417;BME280;28421;51.030;4.006;2023-02-18T17:57:55;102108.81;;;10.65;90.08
29417;BME280;28421;51.030;4.006;2023-02-18T18:00:24;102153.84;;;10.92;90.41
29417;BME280;28421;51.030;4.006;2023-02-18T18:02:49;102129.50;;;10.84;90.66
29417;BME280;28421;51.030;4.006;2023-02-18T18:07:51;102160.22;;;11.01;90.40
29417;BME280;28421;51.030;4.006;2023-02-18T18:10:21;102153.69;;;10.93;90.63
29417;BME280;28421;51.030;4.006;2023-02-18T18:12:48;102161.06;;;11.01;90.29
29417;BME280;28421;51.030;4.006;2023-02-18T18:15:34;102163.72;;;11.11;89.57
29417;BME280;28421;51.030;4.006;2023-02-18T18:18:00;102155.81;;;11.00;89.27
29417;BME280;28421;51.030;4.006;2023-02-18T18:20:27;102149.44;;;11.10;89.17
29417;BME280;28421;51.030;4.006;2023-02-18T18:22:55;102161.03;;;11.20;89.44
29417;BME280;28421;51.030;4.006;2023-02-18T18:25:29;102146.03;;;11.08;89.34
29417;BME280;28421;51.030;4.006;2023-02-18T18:27:55;102151.84;;;11.13;89.25
29417;BME280;28421;51.030;4.006;2023-02-18T18:30:23;102145.44;;;11.14;89.14
29417;BME280;28421;51.030;4.006;2023-02-18T18:32:49;102124.94;;;10.94;88.41
29417;BME280;28421;51.030;4.006;2023-02-18T18:35:19;102146.72;;;11.10;88.90
29417;BME280;28421;51.030;4.006;2023-02-18T18:37:45;102094.66;;;10.73;88.40
29417;BME280;28421;51.030;4.006;2023-02-18T18:40:11;102106.09;;;11.04;87.99
29417;BME280;28421;51.030;4.006;2023-02-18T18:42:36;102150.72;;;10.97;88.40
29417;BME280;28421;51.030;4.006;2023-02-18T18:45:02;102105.00;;;10.87;88.83
29417;BME280;28421;51.030;4.006;2023-02-18T18:47:27;102114.03;;;11.05;88.26
29417;BME280;28421;51.030;4.006;2023-02-18T18:49:53;102098.63;;;10.88;87.94
29417;BME280;28421;51.030;4.006;2023-02-18T18:52:19;102151.56;;;11.16;87.71
29417;BME280;28421;51.030;4.006;2023-02-18T18:54:44;102115.59;;;10.98;87.83
29417;BME280;28421;51.030;4.006;2023-02-18T18:57:10;102140.66;;;11.08;88.25
29417;BME280;28421;51.030;4.006;2023-02-18T18:59:35;102104.13;;;10.77;87.76
29417;BME280;28421;51.030;4.006;2023-02-18T19:02:01;102112.19;;;10.86;87.23
29417;BME280;28421;51.030;4.006;2023-02-18T19:04:26;102097.19;;;10.93;87.28
29417;BME280;28421;51.030;4.006;2023-02-18T19:06:52;102147.59;;;11.20;86.26
29417;BME280;28421;51.030;4.006;2023-02-18T19:09:17;102155.06;;;11.36;86.73
29417;BME280;28421;51.030;4.006;2023-02-18T19:11:43;102090.63;;;11.15;85.89
29417;BME280;28421;51.030;4.006;2023-02-18T19:14:11;102138.06;;;11.26;86.34
29417;BME280;28421;51.030;4.006;2023-02-18T19:16:38;102122.22;;;11.13;86.12
29417;BME280;28421;51.030;4.006;2023-02-18T19:19:08;102069.72;;;11.00;85.52
29417;BME280;28421;51.030;4.006;2023-02-18T19:21:35;102104.34;;;11.22;85.21
29417;BME280;28421;51.030;4.006;2023-02-18T19:24:00;102103.53;;;11.12;85.90
29417;BME280;28421;51.030;4.006;2023-02-18T19:26:26;102077.66;;;10.82;86.27
29417;BME280;28421;51.030;4.006;2023-02-18T19:28:51;102117.13;;;11.10;86.40
29417;BME280;28421;51.030;4.006;2023-02-18T19:31:17;102095.91;;;11.07;86.61
29417;BME280;28421;51.030;4.006;2023-02-18T19:33:48;102076.50;;;10.94;86.74
29417;BME280;28421;51.030;4.006;2023-02-18T19:36:16;102097.84;;;11.15;85.76
29417;BME280;28421;51.030;4.006;2023-02-18T19:38:42;102109.47;;;11.15;86.40
29417;BME280;28421;51.030;4.006;2023-02-18T19:41:13;102105.22;;;11.13;86.63
29417;BME280;28421;51.030;4.006;2023-02-18T19:43:40;102098.47;;;10.99;87.17
29417;BME280;28421;51.030;4.006;2023-02-18T19:46:10;102077.50;;;10.93;86.54